createdAt,value
2019-04-20T00:01:31.717Z,94303.47
2019-04-20T00:03:56.310Z,94301.13
2019-04-20T00:06:25.025Z,94301.41
2019-04-20T00:08:59.847Z,94301.19
2019-04-20T00:11:28.174Z,94293.21
2019-04-20T00:14:01.880Z,94291.29
2019-04-20T00:16:23.295Z,94289.88
2019-04-20T00:18:55.447Z,94286.50
2019-04-20T00:21:47.027Z,94291.73
2019-04-20T00:24:16.895Z,94284.92
2019-04-20T00:27:10.177Z,94289.12
2019-04-20T00:29:29.398Z,94287.11
2019-04-20T00:31:52.325Z,94279.20
2019-04-20T00:34:19.284Z,94283.40
2019-04-20T00:36:41.346Z,94282.69
2019-04-20T00:39:12.871Z,94277.67
2019-04-20T00:41:44.148Z,94280.91
2019-04-20T00:44:16.149Z,94275.26
2019-04-20T00:46:53.157Z,94282.50
2019-04-20T00:49:25.368Z,94281.33
2019-04-20T00:52:05.147Z,94279.73
2019-04-20T00:54:09.815Z,94272.45
2019-04-20T00:56:39.245Z,94278.28
2019-04-20T00:59:20.521Z,94273.83
2019-04-20T01:01:52.365Z,94275.13
2019-04-20T01:04:27.196Z,94275.39
2019-04-20T01:06:53.887Z,94271.96
2019-04-20T01:09:14.072Z,94276.64
2019-04-20T01:11:45.533Z,94281.49
2019-04-20T01:14:14.598Z,94279.05
2019-04-20T01:16:50.547Z,94279.11
2019-04-20T01:19:12.403Z,94285.99
2019-04-20T01:21:43.085Z,94289.33
2019-04-20T01:24:16.218Z,94287.06
2019-04-20T01:26:43.703Z,94283.80
2019-04-20T01:29:23.772Z,94291.34
2019-04-20T01:31:57.071Z,94286.52
2019-04-20T01:34:26.528Z,94291.08
2019-04-20T01:36:55.995Z,94294.47
2019-04-20T01:39:21.768Z,94292.84
2019-04-20T01:41:41.354Z,94291.05
2019-04-20T01:44:09.615Z,94285.04
2019-04-20T01:46:39.105Z,94283.21
2019-04-20T01:49:14.817Z,94284.41
2019-04-20T01:51:47.030Z,94289.49
2019-04-20T01:54:23.453Z,94290.39
2019-04-20T01:56:52.265Z,94294.11
2019-04-20T01:59:27.477Z,94290.08
2019-04-20T02:01:55.655Z,94294.21
2019-04-20T02:04:27.959Z,94296.61
2019-04-20T02:06:58.159Z,94285.47
2019-04-20T02:09:26.385Z,94291.53
2019-04-20T02:11:55.093Z,94288.96
2019-04-20T02:14:32.144Z,94287.82
2019-04-20T02:17:06.951Z,94284.45
2019-04-20T02:19:40.538Z,94283.35
2019-04-20T02:22:06.252Z,94285.48
2019-04-20T02:24:23.888Z,94292.41
2019-04-20T02:26:52.114Z,94284.26
2019-04-20T02:29:39.875Z,94286.89
2019-04-20T02:32:26.589Z,94292.22
2019-04-20T02:34:55.624Z,94290.51
2019-04-20T02:37:53.869Z,94290.21
2019-04-20T02:40:09.118Z,94288.17
2019-04-20T02:42:48.160Z,94286.06
2019-04-20T02:47:41.451Z,94285.33
2019-04-20T02:50:07.481Z,94280.72
2019-04-20T02:52:49.286Z,94287.27
2019-04-20T02:55:09.401Z,94283.88
2019-04-20T02:57:40.396Z,94286.24
2019-04-20T03:02:23.548Z,94280.00
2019-04-20T03:04:45.250Z,94280.45
2019-04-20T03:07:19.557Z,94278.70
2019-04-20T03:09:56.306Z,94278.42
2019-04-20T03:12:34.448Z,94277.11
2019-04-20T03:14:51.475Z,94279.36
2019-04-20T03:17:29.694Z,94276.06
2019-04-20T03:19:47.640Z,94277.45
2019-04-20T03:22:35.234Z,94280.63
2019-04-20T03:25:03.953Z,94278.33
2019-04-20T03:27:25.394Z,94284.83
2019-04-20T03:30:03.637Z,94275.58
2019-04-20T03:35:22.619Z,94276.80
2019-04-20T03:37:42.628Z,94278.61
2019-04-20T03:40:01.370Z,94279.97
2019-04-20T03:42:16.348Z,94280.97
2019-04-20T03:44:52.965Z,94278.55
2019-04-20T03:47:31.568Z,94280.50
2019-04-20T03:50:07.650Z,94280.53
2019-04-20T03:52:44.965Z,94279.99
2019-04-20T03:58:27.689Z,94278.89
2019-04-20T04:01:03.824Z,94273.92
2019-04-20T04:03:47.198Z,94277.83
2019-04-20T04:06:05.463Z,94281.96
2019-04-20T04:08:30.370Z,94282.55
2019-04-20T04:11:12.336Z,94284.37
2019-04-20T04:13:24.932Z,94281.80
2019-04-20T04:15:59.339Z,94280.09
2019-04-20T04:18:29.748Z,94285.73
2019-04-20T04:21:01.446Z,94277.85
2019-04-20T04:23:40.792Z,94286.33
2019-04-20T04:26:10.093Z,94286.76
2019-04-20T04:28:53.812Z,94285.18
2019-04-20T04:31:12.118Z,94287.39
2019-04-20T04:36:10.153Z,94288.23
2019-04-20T04:41:20.213Z,94286.89
2019-04-20T04:43:40.793Z,94294.20
2019-04-20T04:45:53.864Z,94295.23
2019-04-20T04:48:28.235Z,94298.41
2019-04-20T04:50:58.019Z,94300.45
2019-04-20T04:53:30.324Z,94301.38
2019-04-20T04:55:58.567Z,94296.81
2019-04-20T04:58:23.574Z,94296.44
2019-04-20T05:00:56.545Z,94299.17
2019-04-20T05:03:42.756Z,94304.22
2019-04-20T05:06:11.735Z,94306.24
2019-04-20T05:08:32.641Z,94312.38
2019-04-20T05:10:56.213Z,94310.24
2019-04-20T05:13:27.690Z,94310.44
2019-04-20T05:16:10.951Z,94307.99
2019-04-20T05:18:51.246Z,94308.23
2019-04-20T05:21:15.415Z,94310.48
2019-04-20T05:23:47.048Z,94313.86
2019-04-20T05:26:39.323Z,94322.61
2019-04-20T05:31:30.904Z,94317.16
2019-04-20T05:34:17.061Z,94314.38
2019-04-20T05:36:41.505Z,94306.84
2019-04-20T05:39:21.498Z,94312.36
2019-04-20T05:41:41.762Z,94310.03
2019-04-20T05:44:11.513Z,94315.50
2019-04-20T05:46:44.589Z,94315.85
2019-04-20T05:49:17.133Z,94321.54
2019-04-20T05:51:46.170Z,94315.66
2019-04-20T05:54:15.534Z,94324.44
2019-04-20T05:56:45.857Z,94321.27
2019-04-20T05:59:11.642Z,94319.67
2019-04-20T06:01:53.165Z,94325.20
2019-04-20T06:04:17.347Z,94324.92
2019-04-20T06:06:44.681Z,94321.18
2019-04-20T06:09:20.709Z,94322.73
2019-04-20T06:11:55.040Z,94318.92
2019-04-20T06:14:05.887Z,94327.20
2019-04-20T06:16:56.941Z,94326.15
2019-04-20T06:19:26.376Z,94320.64
2019-04-20T06:21:58.503Z,94313.72
2019-04-20T06:24:37.822Z,94315.72
2019-04-20T06:27:04.853Z,94319.12
2019-04-20T06:29:22.136Z,94316.20
2019-04-20T06:31:57.667Z,94317.41
2019-04-20T06:34:33.086Z,94321.67
2019-04-20T06:36:58.370Z,94321.50
2019-04-20T06:39:46.483Z,94323.69
2019-04-20T06:49:35.418Z,94324.66
2019-04-20T06:52:25.588Z,94321.31
2019-04-20T06:55:03.449Z,94317.74
2019-04-20T06:57:38.036Z,94321.22
2019-04-20T07:00:10.314Z,94320.76
2019-04-20T07:02:37.036Z,94321.36
2019-04-20T07:05:05.384Z,94314.08
2019-04-20T07:07:41.982Z,94317.55
2019-04-20T07:12:34.380Z,94326.07
2019-04-20T07:14:55.542Z,94320.58
2019-04-20T07:17:46.022Z,94324.33
2019-04-20T07:20:04.189Z,94323.81
2019-04-20T07:22:46.156Z,94316.23
2019-04-20T07:25:14.409Z,94319.42
2019-04-20T07:27:49.025Z,94319.16
2019-04-20T07:30:13.729Z,94324.67
2019-04-20T07:32:52.458Z,94318.66
2019-04-20T07:35:14.442Z,94322.84
2019-04-20T07:38:13.807Z,94325.71
2019-04-20T07:40:15.119Z,94325.20
2019-04-20T07:42:47.963Z,94321.52
2019-04-20T07:45:24.612Z,94324.91
2019-04-20T07:47:52.477Z,94324.09
2019-04-20T07:50:12.904Z,94321.72
2019-04-20T07:52:42.183Z,94319.55
2019-04-20T07:55:33.370Z,94307.95
2019-04-20T07:57:42.840Z,94307.87
2019-04-20T08:00:19.896Z,94308.34
2019-04-20T08:03:12.418Z,94308.53
2019-04-20T08:05:36.748Z,94309.75
2019-04-20T08:08:15.783Z,94300.38
2019-04-20T08:10:46.980Z,94308.70
2019-04-20T08:15:51.241Z,94304.42
2019-04-20T08:18:21.497Z,94298.26
2019-04-20T08:20:49.441Z,94301.75
2019-04-20T08:23:21.974Z,94299.83
2019-04-20T08:25:39.021Z,94304.41
2019-04-20T08:28:13.667Z,94300.41
2019-04-20T08:31:06.598Z,94305.05
2019-04-20T08:33:47.098Z,94295.00
2019-04-20T08:36:13.572Z,94298.70
2019-04-20T08:39:08.260Z,94296.45
2019-04-20T08:41:07.270Z,94297.66
2019-04-20T08:43:49.649Z,94294.03
2019-04-20T08:46:12.191Z,94288.98
2019-04-20T08:48:40.827Z,94290.25
2019-04-20T08:51:07.445Z,94288.88
2019-04-20T08:53:42.063Z,94284.79
2019-04-20T08:56:05.836Z,94286.77
2019-04-20T08:58:20.402Z,94281.05
2019-04-20T09:00:53.695Z,94277.87
2019-04-20T09:03:25.398Z,94274.12
2019-04-20T09:06:00.531Z,94277.27
2019-04-20T09:08:26.304Z,94271.34
2019-04-20T09:11:07.019Z,94271.41
2019-04-20T09:13:27.057Z,94267.87
2019-04-20T09:15:49.350Z,94259.34
2019-04-20T09:18:29.066Z,94261.55
2019-04-20T09:21:01.206Z,94266.36
2019-04-20T09:23:38.153Z,94257.77
2019-04-20T09:26:29.752Z,94260.77
2019-04-20T09:28:38.409Z,94249.55
2019-04-20T09:31:18.051Z,94260.02
2019-04-20T09:33:51.390Z,94256.11
2019-04-20T09:36:35.216Z,94250.03
2019-04-20T09:39:15.288Z,94248.34
2019-04-20T09:41:59.738Z,94242.44
2019-04-20T09:44:13.377Z,94245.48
2019-04-20T09:46:48.513Z,94222.23
2019-04-20T09:49:20.649Z,94222.23
2019-04-20T09:51:58.572Z,94235.30
2019-04-20T09:54:34.061Z,94228.36
2019-04-20T09:57:03.563Z,94228.63
2019-04-20T09:59:31.589Z,94225.54
2019-04-20T10:01:46.809Z,94222.59
2019-04-20T10:04:13.174Z,94230.01
2019-04-20T10:06:41.521Z,94220.45
2019-04-20T10:09:09.824Z,94221.22
2019-04-20T10:11:40.854Z,94214.91
2019-04-20T10:14:08.274Z,94222.11
2019-04-20T10:16:37.732Z,94213.00
2019-04-20T10:19:08.737Z,94214.68
2019-04-20T10:21:36.358Z,94208.85
2019-04-20T10:24:04.637Z,94214.63
2019-04-20T10:26:32.889Z,94202.16
2019-04-20T10:29:01.590Z,94200.61
2019-04-20T10:31:30.748Z,94201.20
2019-04-20T10:33:59.791Z,94197.61
2019-04-20T10:36:35.772Z,94201.83
2019-04-20T10:39:06.638Z,94208.02
2019-04-20T10:41:44.530Z,94194.70
2019-04-20T10:44:04.991Z,94196.92
2019-04-20T10:46:33.342Z,94193.42
2019-04-20T10:49:04.252Z,94202.84
2019-04-20T10:51:31.653Z,94201.52
2019-04-20T10:54:00.432Z,94193.45
2019-04-20T10:56:29.529Z,94199.25
2019-04-20T10:58:58.019Z,94193.20
2019-04-20T11:01:27.450Z,94199.59
2019-04-20T11:03:56.448Z,94188.81
2019-04-20T11:06:24.897Z,94185.41
2019-04-20T11:08:53.169Z,94193.83
2019-04-20T11:11:26.496Z,94189.30
2019-04-20T11:13:51.440Z,94188.63
2019-04-20T11:16:20.220Z,94187.33
2019-04-20T11:18:49.626Z,94192.84
2019-04-20T11:21:17.968Z,94189.23
2019-04-20T11:23:46.564Z,94190.03
2019-04-20T11:26:16.139Z,94181.08
2019-04-20T11:28:44.161Z,94180.09
2019-04-20T11:31:12.610Z,94180.05
2019-04-20T11:33:40.881Z,94176.66
2019-04-20T11:36:09.439Z,94179.33
2019-04-20T11:38:38.694Z,94178.60
2019-04-20T11:41:14.388Z,94186.33
2019-04-20T11:43:37.700Z,94177.70
2019-04-20T11:46:06.862Z,94174.23
2019-04-20T11:48:35.199Z,94173.69
2019-04-20T11:51:03.547Z,94163.39
2019-04-20T11:53:32.236Z,94164.08
2019-04-20T11:56:00.609Z,94167.50
2019-04-20T11:58:30.242Z,94163.47
2019-04-20T12:01:08.542Z,94162.68
2019-04-20T12:03:41.384Z,94160.03
2019-04-20T12:06:04.550Z,94161.75
2019-04-20T12:08:32.177Z,94165.53
2019-04-20T12:11:03.249Z,94159.72
2019-04-20T12:13:30.999Z,94161.92
2019-04-20T12:15:59.486Z,94157.64
2019-04-20T12:18:27.773Z,94156.16
2019-04-20T12:20:56.720Z,94143.85
2019-04-20T12:23:26.400Z,94154.16
2019-04-20T12:25:54.734Z,94143.85
2019-04-20T12:28:23.011Z,94147.14
2019-04-20T12:30:51.559Z,94144.66
2019-04-20T12:33:20.024Z,94141.95
2019-04-20T12:35:48.277Z,94145.13
2019-04-20T12:38:17.124Z,94143.85
2019-04-20T12:40:46.185Z,94140.59
2019-04-20T12:43:15.182Z,94136.34
2019-04-20T12:45:44.140Z,94135.38
2019-04-20T12:48:13.507Z,94137.05
2019-04-20T12:50:43.635Z,94134.83
2019-04-20T12:53:12.845Z,94133.95
2019-04-20T12:55:41.206Z,94136.67
2019-04-20T12:58:10.518Z,94137.38
2019-04-20T13:00:45.918Z,94134.34
2019-04-20T13:03:14.367Z,94128.85
2019-04-20T13:05:43.601Z,94134.01
2019-04-20T13:08:13.828Z,94128.08
2019-04-20T13:10:44.482Z,94129.35
2019-04-20T13:13:16.950Z,94122.06
2019-04-20T13:15:46.861Z,94119.38
2019-04-20T13:18:19.438Z,94130.02
2019-04-20T13:20:48.026Z,94128.52
2019-04-20T13:23:17.233Z,94119.96
2019-04-20T13:25:46.608Z,94116.19
2019-04-20T13:28:15.013Z,94118.34
2019-04-20T13:30:43.897Z,94110.58
2019-04-20T13:33:12.217Z,94115.23
2019-04-20T13:35:40.609Z,94108.05
2019-04-20T13:38:10.038Z,94104.05
2019-04-20T13:40:39.720Z,94110.23
2019-04-20T13:43:08.103Z,94109.73
2019-04-20T13:45:37.179Z,94102.49
2019-04-20T13:48:06.660Z,94098.98
2019-04-20T13:50:36.016Z,94093.74
2019-04-20T13:53:03.677Z,94096.62
2019-04-20T13:55:31.947Z,94094.64
2019-04-20T13:58:07.694Z,94089.08
2019-04-20T14:00:42.876Z,94093.85
2019-04-20T14:03:18.759Z,94087.64
2019-04-20T14:05:47.064Z,94084.77
2019-04-20T14:08:17.630Z,94076.00
2019-04-20T14:10:47.194Z,94080.55
2019-04-20T14:13:18.694Z,94079.21
2019-04-20T14:15:47.032Z,94073.14
2019-04-20T14:18:15.337Z,94072.52
2019-04-20T14:20:44.665Z,94069.22
2019-04-20T14:23:12.958Z,94065.84
2019-04-20T14:25:41.268Z,94056.66
2019-04-20T14:28:09.513Z,94057.16
2019-04-20T14:30:38.513Z,94060.61
2019-04-20T14:33:06.748Z,94053.79
2019-04-20T14:35:36.793Z,94050.42
2019-04-20T14:38:05.895Z,94051.01
2019-04-20T14:40:34.514Z,94043.19
2019-04-20T14:43:03.465Z,94040.41
2019-04-20T14:45:32.363Z,94048.22
2019-04-20T14:48:01.642Z,94041.41
2019-04-20T14:50:29.836Z,94042.00
2019-04-20T14:52:58.117Z,94039.25
2019-04-20T14:55:26.433Z,94039.03
2019-04-20T14:57:57.397Z,94032.95
2019-04-20T15:00:53.343Z,94034.86
2019-04-20T15:03:36.714Z,94034.25
2019-04-20T15:06:03.386Z,94032.83
2019-04-20T15:08:32.508Z,94031.52
2019-04-20T15:11:01.080Z,94027.22
2019-04-20T15:13:30.546Z,94025.00
2019-04-20T15:15:59.068Z,94022.16
2019-04-20T15:18:29.361Z,94023.86
2019-04-20T15:20:59.603Z,94020.03
2019-04-20T15:23:27.940Z,94021.64
2019-04-20T15:25:56.168Z,94020.94
2019-04-20T15:28:24.428Z,94014.86
2019-04-20T15:30:54.055Z,94008.34
2019-04-20T15:33:23.064Z,94015.63
2019-04-20T15:35:52.512Z,94009.36
2019-04-20T15:38:20.971Z,94006.05
2019-04-20T15:40:49.286Z,93992.88
2019-04-20T15:43:20.913Z,93998.86
2019-04-20T15:45:47.605Z,93994.93
2019-04-20T15:48:16.338Z,94006.69
2019-04-20T15:50:45.763Z,94007.16
2019-04-20T15:53:13.557Z,94005.45
2019-04-20T15:55:43.814Z,93995.91
2019-04-20T15:58:12.282Z,93991.88
2019-04-20T16:00:40.695Z,93995.74
2019-04-20T16:03:13.249Z,93992.67
2019-04-20T16:05:56.623Z,93994.88
2019-04-20T16:08:36.715Z,93994.19
2019-04-20T16:11:06.824Z,93991.62
2019-04-20T16:13:39.552Z,93986.44
2019-04-20T16:16:05.860Z,93999.47
2019-04-20T16:18:34.951Z,93990.79
2019-04-20T16:21:07.952Z,93987.82
2019-04-20T16:23:34.933Z,93984.56
2019-04-20T16:26:07.915Z,93979.16
2019-04-20T16:28:37.443Z,93987.73
2019-04-20T16:31:09.682Z,93992.95
2019-04-20T16:33:36.690Z,93985.42
2019-04-20T16:36:04.975Z,93981.03
2019-04-20T16:38:33.247Z,93977.86
2019-04-20T16:41:02.191Z,93978.34
2019-04-20T16:43:36.522Z,93972.48
2019-04-20T16:46:01.381Z,93969.25
2019-04-20T16:48:30.409Z,93975.72
2019-04-20T16:50:58.767Z,93970.19
2019-04-20T16:53:27.032Z,93972.22
2019-04-20T16:55:55.316Z,93966.35
2019-04-20T16:58:23.877Z,93969.80
2019-04-20T17:00:52.153Z,93967.87
2019-04-20T17:03:22.923Z,93965.98
2019-04-20T17:05:52.356Z,93972.84
2019-04-20T17:08:20.918Z,93971.03
2019-04-20T17:10:49.360Z,93975.88
2019-04-20T17:13:28.410Z,93967.31
2019-04-20T17:15:47.996Z,93968.52
2019-04-20T17:18:16.334Z,93971.93
2019-04-20T17:20:44.581Z,93963.30
2019-04-20T17:23:13.157Z,93973.79
2019-04-20T17:25:41.936Z,93974.12
2019-04-20T17:31:09.151Z,93973.06
2019-04-20T17:33:55.318Z,93968.27
2019-04-20T17:36:19.006Z,93966.39
2019-04-20T17:38:48.461Z,93970.85
2019-04-20T17:41:39.109Z,93971.17
2019-04-20T17:44:00.240Z,93970.17
2019-04-20T17:46:31.465Z,93977.24
2019-04-20T17:49:00.666Z,93970.63
2019-04-20T17:51:34.661Z,93973.11
2019-04-20T17:53:52.764Z,93975.05
2019-04-20T17:56:15.223Z,93978.25
2019-04-20T17:58:43.959Z,93978.59
2019-04-20T18:04:49.470Z,93978.20
2019-04-20T18:07:00.645Z,93967.51
2019-04-20T18:09:44.555Z,93967.51
2019-04-20T18:11:55.267Z,93982.18
2019-04-20T18:14:37.485Z,93981.05
2019-04-20T18:17:15.136Z,93988.42
2019-04-20T18:19:34.820Z,93998.98
2019-04-20T18:22:05.803Z,93993.55
2019-04-20T18:24:58.267Z,93997.61
2019-04-20T18:27:27.560Z,93988.16
2019-04-20T18:29:53.172Z,93988.16
2019-04-20T18:32:23.074Z,94004.34
2019-04-20T18:35:00.860Z,93998.39
2019-04-20T18:37:27.428Z,94003.94
2019-04-20T18:40:02.578Z,94004.72
2019-04-20T18:42:32.373Z,94008.70
2019-04-20T18:45:14.239Z,94016.43
2019-04-20T18:47:48.032Z,94016.66
2019-04-20T18:50:07.744Z,94020.70
2019-04-20T18:52:27.540Z,94024.05
2019-04-20T18:54:57.432Z,94024.52
2019-04-20T18:57:29.240Z,94026.03
2019-04-20T18:59:58.471Z,94028.88
2019-04-20T19:02:30.910Z,94029.81
2019-04-20T19:04:58.605Z,94033.08
2019-04-20T19:07:25.930Z,94036.80
2019-04-20T19:10:02.615Z,94038.75
2019-04-20T19:12:31.168Z,94038.31
2019-04-20T19:15:19.209Z,94047.44
2019-04-20T19:20:30.691Z,94048.04
2019-04-20T19:23:00.066Z,94047.67
2019-04-20T19:25:34.325Z,94051.72
2019-04-20T19:28:00.101Z,94050.20
2019-04-20T19:30:37.308Z,94049.92
2019-04-20T19:33:14.732Z,94053.63
2019-04-20T19:35:40.521Z,94053.69
2019-04-20T19:38:09.193Z,94053.69
2019-04-20T19:40:40.719Z,94059.06
2019-04-20T19:43:08.134Z,94056.94
2019-04-20T19:45:46.409Z,94056.08
2019-04-20T19:48:12.165Z,94059.31
2019-04-20T19:50:54.715Z,94059.91
2019-04-20T19:53:24.678Z,94061.83
2019-04-20T19:55:43.973Z,94058.68
2019-04-20T19:58:11.488Z,94052.00
2019-04-20T20:00:51.181Z,94055.97
2019-04-20T20:03:17.782Z,94049.17
2019-04-20T20:05:48.089Z,94052.72
2019-04-20T20:08:20.896Z,94046.30
2019-04-20T20:10:46.060Z,94044.41
2019-04-20T20:13:14.993Z,94043.75
2019-04-20T20:15:45.119Z,94043.84
2019-04-20T20:18:30.663Z,94035.48
2019-04-20T20:21:02.278Z,94036.89
2019-04-20T20:23:14.244Z,94036.04
2019-04-20T20:25:46.475Z,94034.01
2019-04-20T20:28:25.485Z,94032.10
2019-04-20T20:30:58.182Z,94029.85
2019-04-20T20:33:27.925Z,94026.65
2019-04-20T20:35:53.003Z,94025.06
2019-04-20T20:38:21.530Z,94026.69
2019-04-20T20:40:54.953Z,94024.78
2019-04-20T20:43:23.115Z,94022.66
2019-04-20T20:45:56.439Z,94018.52
2019-04-20T20:48:31.366Z,94009.45
2019-04-20T20:50:57.360Z,94014.47
2019-04-20T20:53:21.844Z,94004.77
2019-04-20T20:55:46.491Z,94006.49
2019-04-20T20:58:18.153Z,94012.61
2019-04-20T21:00:54.447Z,94012.45
2019-04-20T21:03:22.221Z,94012.59
2019-04-20T21:05:43.108Z,94016.45
2019-04-20T21:08:11.436Z,94017.41
2019-04-20T21:10:42.117Z,94017.80
2019-04-20T21:13:11.803Z,94012.10
2019-04-20T21:15:40.596Z,94012.19
2019-04-20T21:18:33.256Z,94016.72
2019-04-20T21:20:53.889Z,94016.72
2019-04-20T21:23:23.946Z,94023.67
2019-04-20T21:25:47.559Z,94027.03
2019-04-20T21:28:13.214Z,94029.07
2019-04-20T21:30:46.421Z,94027.21
2019-04-20T21:33:13.043Z,94028.89
2019-04-20T21:35:44.978Z,94021.88
2019-04-20T21:38:14.907Z,94029.48
2019-04-20T21:40:45.912Z,94031.42
2019-04-20T21:43:13.192Z,94023.20
2019-04-20T21:45:48.334Z,94020.02
2019-04-20T21:48:31.858Z,94021.58
2019-04-20T21:50:58.256Z,94007.41
2019-04-20T21:53:19.551Z,94006.78
2019-04-20T21:55:41.904Z,94009.33
2019-04-20T21:58:10.382Z,94010.41
2019-04-20T22:01:05.166Z,94004.67
2019-04-20T22:03:24.705Z,94010.94
2019-04-20T22:05:56.419Z,94006.89
2019-04-20T22:08:24.706Z,94004.88
2019-04-20T22:10:53.483Z,94011.20
2019-04-20T22:13:26.762Z,94008.66
2019-04-20T22:15:59.499Z,94006.25
2019-04-20T22:18:23.518Z,94008.17
2019-04-20T22:21:03.528Z,94006.34
2019-04-20T22:23:40.704Z,94003.37
2019-04-20T22:26:03.960Z,94005.75
2019-04-20T22:28:22.265Z,94005.02
2019-04-20T22:30:50.909Z,94010.48
2019-04-20T22:33:29.835Z,94006.42
2019-04-20T22:36:00.948Z,94003.54
2019-04-20T22:38:28.868Z,94004.74
2019-04-20T22:41:03.933Z,94005.67
2019-04-20T22:43:31.392Z,94004.36
2019-04-20T22:45:57.277Z,94005.31
2019-04-20T22:48:25.526Z,94009.59
2019-04-20T22:51:15.330Z,94005.63
2019-04-20T22:53:36.483Z,94004.95
2019-04-20T22:56:15.271Z,93998.69
2019-04-20T22:58:38.462Z,93998.56
2019-04-20T23:00:59.190Z,93986.70
2019-04-20T23:03:25.005Z,93988.80
2019-04-20T23:05:54.434Z,93990.98
2019-04-20T23:08:22.771Z,93991.69
2019-04-20T23:10:51.436Z,93988.30
2019-04-20T23:13:23.231Z,93991.70
2019-04-20T23:15:55.149Z,93993.78
2019-04-20T23:18:20.222Z,93988.28
2019-04-20T23:20:49.978Z,93987.48
2019-04-20T23:23:21.108Z,93985.42
2019-04-20T23:25:47.636Z,93979.61
2019-04-20T23:28:17.861Z,93984.89
2019-04-20T23:30:45.789Z,93982.27
2019-04-20T23:33:16.069Z,93982.78
2019-04-20T23:35:49.807Z,93975.72
2019-04-20T23:38:19.528Z,93975.47
2019-04-20T23:40:45.772Z,93977.80
2019-04-20T23:43:24.430Z,93967.30
2019-04-20T23:46:03.388Z,93969.92
2019-04-20T23:48:41.192Z,93973.08
2019-04-20T23:51:29.589Z,93971.25
2019-04-20T23:53:49.210Z,93971.50
2019-04-20T23:56:06.226Z,93968.89
2019-04-20T23:58:40.616Z,93965.51
